createdAt,value
2022-12-12T00:02:47.466Z,4.50
2022-12-12T00:07:51.381Z,4.60
2022-12-12T00:17:56.432Z,4.80
2022-12-12T00:22:58.612Z,4.50
2022-12-12T00:33:04.548Z,4.40
2022-12-12T00:38:06.647Z,4.40
2022-12-12T00:43:08.760Z,4.40
2022-12-12T00:48:10.814Z,4.20
2022-12-12T00:53:13.582Z,4.10
2022-12-12T00:58:15.589Z,4.10
2022-12-12T01:03:18.049Z,3.80
2022-12-12T01:08:20.416Z,3.90
2022-12-12T01:13:22.646Z,3.50
2022-12-12T01:18:25.533Z,3.40
2022-12-12T01:23:27.942Z,3.20
2022-12-12T01:28:30.065Z,3.10
2022-12-12T01:33:32.297Z,3.40
2022-12-12T01:38:34.459Z,2.90
2022-12-12T01:43:36.553Z,2.90
2022-12-12T01:48:41.545Z,2.80
2022-12-12T01:53:45.700Z,2.80
2022-12-12T01:58:49.661Z,2.70
2022-12-12T02:03:52.727Z,2.70
2022-12-12T02:08:58.102Z,2.60
2022-12-12T02:14:00.432Z,2.60
2022-12-12T02:19:14.633Z,2.80
2022-12-12T02:24:19.440Z,2.50
2022-12-12T02:29:54.022Z,2.50
2022-12-12T02:35:20.102Z,2.40
2022-12-12T02:40:22.102Z,2.40
2022-12-12T02:45:53.167Z,2.40
2022-12-12T02:50:58.923Z,2.60
2022-12-12T02:56:06.784Z,2.30
2022-12-12T03:01:14.767Z,2.40
2022-12-12T03:07:00.762Z,2.40
2022-12-12T03:17:18.236Z,2.40
2022-12-12T03:22:31.579Z,2.40
2022-12-12T03:27:50.781Z,2.40
2022-12-12T03:33:03.054Z,2.50
2022-12-12T03:38:19.771Z,2.50
2022-12-12T03:43:31.916Z,2.60
2022-12-12T03:48:38.150Z,2.60
2022-12-12T03:53:46.234Z,2.60
2022-12-12T03:59:03.609Z,2.70
2022-12-12T04:04:32.645Z,2.80
2022-12-12T04:09:53.649Z,2.80
2022-12-12T04:15:09.892Z,2.80
2022-12-12T04:21:07.541Z,3.10
2022-12-12T04:26:41.592Z,2.90
2022-12-12T04:31:51.808Z,2.90
2022-12-12T04:36:54.654Z,3.00
2022-12-12T04:41:58.515Z,3.00
2022-12-12T04:47:02.942Z,3.10
2022-12-12T04:52:12.431Z,3.10
2022-12-12T04:57:23.829Z,3.10
2022-12-12T05:02:31.686Z,3.00
2022-12-12T05:07:43.805Z,3.00
2022-12-12T05:12:51.446Z,3.00
2022-12-12T05:18:05.425Z,3.00
2022-12-12T05:23:07.608Z,3.00
2022-12-12T05:28:09.710Z,3.00
2022-12-12T05:33:11.761Z,3.00
2022-12-12T05:38:13.810Z,3.00
2022-12-12T05:43:15.930Z,3.00
2022-12-12T05:48:23.974Z,3.00
2022-12-12T05:53:26.594Z,3.00
2022-12-12T05:58:28.785Z,3.00
2022-12-12T06:03:32.031Z,2.80
2022-12-12T06:08:34.288Z,2.80
2022-12-12T06:13:37.645Z,2.70
2022-12-12T06:18:39.752Z,2.50
2022-12-12T06:23:42.840Z,2.50
2022-12-12T06:28:45.323Z,2.40
2022-12-12T06:33:47.766Z,2.30
2022-12-12T06:38:55.437Z,2.40
2022-12-12T06:43:57.842Z,2.20
2022-12-12T06:48:59.956Z,2.30
2022-12-12T06:54:02.246Z,2.40
2022-12-12T06:59:04.859Z,2.10
2022-12-12T07:04:07.200Z,2.30
2022-12-12T07:09:09.709Z,2.10
2022-12-12T07:14:12.257Z,2.20
2022-12-12T07:19:14.451Z,2.20
2022-12-12T07:24:16.626Z,2.30
2022-12-12T07:29:18.735Z,2.30
2022-12-12T07:34:20.841Z,2.30
2022-12-12T07:39:22.949Z,2.40
2022-12-12T07:44:25.007Z,2.50
2022-12-12T07:49:29.013Z,2.60
2022-12-12T07:54:31.116Z,2.70
2022-12-12T07:59:33.190Z,2.70
2022-12-12T08:04:35.295Z,2.80
2022-12-12T08:09:37.737Z,2.90
2022-12-12T08:14:39.688Z,2.90
2022-12-12T08:19:41.920Z,3.00
2022-12-12T08:24:44.084Z,3.10
2022-12-12T08:29:46.230Z,3.10
2022-12-12T08:34:48.559Z,3.20
2022-12-12T08:39:55.449Z,3.20
2022-12-12T08:44:57.853Z,3.30
2022-12-12T08:50:00.009Z,3.30
2022-12-12T08:55:02.187Z,3.50
2022-12-12T09:00:05.195Z,3.50
2022-12-12T09:05:08.051Z,3.60
2022-12-12T09:10:10.869Z,3.80
2022-12-12T09:15:14.497Z,3.70
2022-12-12T09:20:17.039Z,3.80
2022-12-12T09:25:19.354Z,3.90
2022-12-12T09:30:22.168Z,4.00
2022-12-12T09:35:24.480Z,4.20
2022-12-12T09:41:05.537Z,4.10
2022-12-12T09:46:37.608Z,4.10
2022-12-12T09:51:44.131Z,4.30
2022-12-12T09:57:13.238Z,4.30
2022-12-12T10:02:34.198Z,4.40
2022-12-12T10:07:46.369Z,4.40
2022-12-12T10:12:50.163Z,4.50
2022-12-12T10:17:53.052Z,4.50
2022-12-12T10:23:11.217Z,4.60
2022-12-12T10:28:19.159Z,4.70
2022-12-12T10:33:34.320Z,4.80
2022-12-12T10:38:52.564Z,5.10
2022-12-12T10:44:22.963Z,5.30
2022-12-12T10:49:25.201Z,5.60
2022-12-12T10:54:29.092Z,5.70
2022-12-12T10:59:31.521Z,5.80
2022-12-12T11:04:33.558Z,5.90
2022-12-12T11:09:45.534Z,5.90
2022-12-12T11:14:51.279Z,5.90
2022-12-12T11:19:57.037Z,5.90
2022-12-12T11:25:00.445Z,5.90
2022-12-12T11:30:07.962Z,5.90
2022-12-12T11:35:28.792Z,6.10
2022-12-12T11:40:34.678Z,6.20
2022-12-12T11:45:36.781Z,6.30
2022-12-12T11:50:46.425Z,6.50
2022-12-12T11:56:03.189Z,6.70
2022-12-12T12:01:17.713Z,6.90
2022-12-12T12:06:41.640Z,7.00
2022-12-12T12:12:23.463Z,7.10
2022-12-12T12:17:47.393Z,7.20
2022-12-12T12:23:08.333Z,7.30
2022-12-12T12:28:30.155Z,7.30
2022-12-12T12:33:51.285Z,7.50
2022-12-12T12:39:01.750Z,7.90
2022-12-12T12:44:03.807Z,8.00
2022-12-12T12:49:22.304Z,8.10
2022-12-12T12:54:31.121Z,8.10
2022-12-12T12:59:41.782Z,8.20
2022-12-12T13:05:10.185Z,8.30
2022-12-12T13:10:22.395Z,8.10
2022-12-12T13:15:45.590Z,8.10
2022-12-12T13:21:00.325Z,8.10
2022-12-12T13:26:23.139Z,8.20
2022-12-12T13:36:32.343Z,8.40
2022-12-12T13:41:53.959Z,8.40
2022-12-12T13:46:56.128Z,8.60
2022-12-12T13:52:37.776Z,8.80
2022-12-12T13:58:05.637Z,8.90
2022-12-12T14:03:25.967Z,8.80
2022-12-12T14:08:33.356Z,8.70
2022-12-12T14:13:44.618Z,8.40
2022-12-12T14:18:49.748Z,8.20
2022-12-12T14:23:53.476Z,8.00
2022-12-12T14:29:17.242Z,7.70
2022-12-12T14:34:34.392Z,7.70
2022-12-12T14:39:53.340Z,7.40
2022-12-12T14:44:55.966Z,7.30
2022-12-12T14:50:11.077Z,7.00
2022-12-12T14:55:15.760Z,6.80
2022-12-12T15:00:19.389Z,6.70
2022-12-12T15:05:21.437Z,6.40
2022-12-12T15:10:25.898Z,6.20
2022-12-12T15:15:31.882Z,6.00
2022-12-12T15:20:34.999Z,6.00
2022-12-12T15:25:55.900Z,6.00
2022-12-12T15:30:58.144Z,5.60
2022-12-12T15:36:07.686Z,5.30
2022-12-12T15:41:13.713Z,4.90
2022-12-12T15:46:16.862Z,4.60
2022-12-12T15:51:24.679Z,4.40
2022-12-12T15:56:29.176Z,4.20
2022-12-12T16:01:31.683Z,4.10
2022-12-12T16:06:38.548Z,3.90
2022-12-12T16:11:46.920Z,3.80
2022-12-12T16:16:54.787Z,3.60
2022-12-12T16:27:00.565Z,3.30
2022-12-12T16:32:02.736Z,3.10
2022-12-12T16:37:04.785Z,3.00
2022-12-12T16:42:11.836Z,2.90
2022-12-12T16:47:15.843Z,2.80
2022-12-12T16:52:20.518Z,2.60
2022-12-12T16:57:22.647Z,2.50
2022-12-12T17:02:25.497Z,2.40
2022-12-12T17:07:27.784Z,2.30
2022-12-12T17:12:29.961Z,2.30
2022-12-12T17:17:32.083Z,2.10
2022-12-12T17:22:34.247Z,2.00
2022-12-12T17:27:37.075Z,2.00
2022-12-12T17:37:42.167Z,1.70
2022-12-12T17:42:44.243Z,1.70
2022-12-12T17:47:46.326Z,1.60
2022-12-12T17:52:48.452Z,1.60
2022-12-12T17:57:50.627Z,1.40
2022-12-12T18:02:52.837Z,1.50
2022-12-12T18:07:55.035Z,1.30
2022-12-12T18:12:57.222Z,1.20
2022-12-12T18:17:59.610Z,1.10
2022-12-12T18:23:01.600Z,1.00
2022-12-12T18:33:09.965Z,0.90
2022-12-12T18:38:12.219Z,0.80
2022-12-12T18:43:14.299Z,0.70
2022-12-12T18:48:16.290Z,0.70
2022-12-12T18:53:18.504Z,0.60
2022-12-12T18:58:20.549Z,0.50
2022-12-12T19:03:22.524Z,0.40
2022-12-12T19:08:24.690Z,0.40
2022-12-12T19:13:28.011Z,0.30
2022-12-12T19:18:30.170Z,0.30
2022-12-12T19:23:33.091Z,0.10
2022-12-12T19:28:36.064Z,0.10
2022-12-12T19:33:38.806Z,0.10
2022-12-12T19:38:41.063Z,0.00
2022-12-12T19:43:44.756Z,0.00
2022-12-12T19:48:48.076Z,-0.10
2022-12-12T19:53:52.781Z,-0.20
2022-12-12T19:58:56.694Z,-0.20
2022-12-12T20:04:02.992Z,-0.30
2022-12-12T20:09:05.248Z,-0.40
2022-12-12T20:14:07.910Z,-0.40
2022-12-12T20:19:11.222Z,-0.50
2022-12-12T20:24:15.120Z,-0.50
2022-12-12T20:29:17.276Z,-0.60
2022-12-12T20:34:24.697Z,-0.60
2022-12-12T20:39:27.420Z,-0.60
2022-12-12T20:44:30.024Z,-0.70
2022-12-12T20:49:32.609Z,-0.70
2022-12-12T20:54:35.012Z,-0.80
2022-12-12T20:59:37.199Z,-1.50
2022-12-12T21:04:39.287Z,-0.80
2022-12-12T21:09:41.403Z,-1.20
2022-12-12T21:14:43.534Z,-1.70
2022-12-12T21:19:45.685Z,-0.90
2022-12-12T21:24:47.935Z,-0.90
2022-12-12T21:29:50.046Z,-1.10
2022-12-12T21:34:52.166Z,-0.90
2022-12-12T21:39:54.620Z,-1.50
2022-12-12T21:44:56.750Z,-1.10
2022-12-12T21:49:58.829Z,-1.20
2022-12-12T21:55:00.903Z,-1.20
2022-12-12T22:00:03.180Z,-1.20
2022-12-12T22:05:15.817Z,-1.20
2022-12-12T22:10:18.154Z,-1.20
2022-12-12T22:15:21.730Z,-1.90
2022-12-12T22:20:24.049Z,-1.40
2022-12-12T22:25:27.410Z,-1.50
2022-12-12T22:30:29.454Z,-1.50
2022-12-12T22:35:31.646Z,-1.40
2022-12-12T22:40:33.942Z,-1.40
2022-12-12T22:45:35.972Z,-1.70
2022-12-12T22:50:38.298Z,-2.10
2022-12-12T22:55:40.707Z,-2.20
2022-12-12T23:00:43.120Z,-2.10
2022-12-12T23:12:07.523Z,-1.90
2022-12-12T23:17:09.612Z,-1.80
2022-12-12T23:22:12.091Z,-1.40
2022-12-12T23:27:14.219Z,-2.50
2022-12-12T23:32:16.329Z,-2.00
2022-12-12T23:37:18.440Z,-2.20
2022-12-12T23:42:20.586Z,-1.70
2022-12-12T23:47:22.637Z,-2.00
2022-12-12T23:52:24.705Z,-2.10
2022-12-12T23:57:26.849Z,-2.80
